createdAt,value
2023-03-06T00:01:31.345Z,26.35
2023-03-06T00:04:03.601Z,25.98
2023-03-06T00:06:32.509Z,26.58
2023-03-06T00:09:08.053Z,27.15
2023-03-06T00:11:38.013Z,27.30
2023-03-06T00:14:07.210Z,27.25
2023-03-06T00:16:48.479Z,27.67
2023-03-06T00:19:17.875Z,27.40
2023-03-06T00:21:50.261Z,27.95
2023-03-06T00:24:19.788Z,27.65
2023-03-06T00:26:46.525Z,29.90
2023-03-06T00:29:18.722Z,30.17
2023-03-06T00:31:54.288Z,29.35
2023-03-06T00:34:25.972Z,27.92
2023-03-06T00:36:55.850Z,28.75
2023-03-06T00:39:31.084Z,29.27
2023-03-06T00:42:02.232Z,27.42
2023-03-06T00:44:35.614Z,27.65
2023-03-06T00:47:05.806Z,28.55
2023-03-06T00:49:36.888Z,29.30
2023-03-06T00:52:08.766Z,29.75
2023-03-06T00:54:44.702Z,29.85
2023-03-06T00:57:14.824Z,28.52
2023-03-06T00:59:45.760Z,29.10
2023-03-06T01:02:19.592Z,29.27
2023-03-06T01:04:48.919Z,29.80
2023-03-06T01:07:21.728Z,29.48
2023-03-06T01:09:51.084Z,30.35
2023-03-06T01:12:23.668Z,28.45
2023-03-06T01:14:51.268Z,29.65
2023-03-06T01:17:20.868Z,46.85
2023-03-06T01:19:57.110Z,29.38
2023-03-06T01:22:27.331Z,30.15
2023-03-06T01:25:00.420Z,30.67
2023-03-06T01:27:30.710Z,29.27
2023-03-06T01:30:00.704Z,29.95
2023-03-06T01:32:31.855Z,31.52
2023-03-06T01:35:01.413Z,30.15
2023-03-06T01:37:32.675Z,30.23
2023-03-06T01:39:59.432Z,27.70
2023-03-06T01:42:34.547Z,28.27
2023-03-06T01:45:21.366Z,28.73
2023-03-06T01:47:55.287Z,28.35
2023-03-06T01:50:27.440Z,28.77
2023-03-06T01:53:01.166Z,45.45
2023-03-06T01:55:36.763Z,44.33
2023-03-06T02:01:05.351Z,26.88
2023-03-06T02:03:38.676Z,29.20
2023-03-06T02:06:23.330Z,28.70
2023-03-06T02:08:51.277Z,27.75
2023-03-06T02:11:30.383Z,46.33
2023-03-06T02:14:03.256Z,29.10
2023-03-06T02:16:34.932Z,27.73
2023-03-06T02:19:07.906Z,27.48
2023-03-06T02:21:43.196Z,26.50
2023-03-06T02:24:32.807Z,28.85
2023-03-06T02:27:17.429Z,28.63
2023-03-06T02:29:47.381Z,27.60
2023-03-06T02:32:18.803Z,29.48
2023-03-06T02:34:48.657Z,29.08
2023-03-06T02:37:20.973Z,27.42
2023-03-06T02:39:53.665Z,28.75
2023-03-06T02:42:25.930Z,25.98
2023-03-06T02:44:56.392Z,26.85
2023-03-06T02:47:24.692Z,27.00
2023-03-06T02:49:56.829Z,27.77
2023-03-06T02:52:32.947Z,25.80
2023-03-06T02:55:02.936Z,26.98
2023-03-06T02:57:40.441Z,26.40
2023-03-06T03:00:11.415Z,26.80
2023-03-06T03:02:40.376Z,27.58
2023-03-06T03:05:17.442Z,27.25
2023-03-06T03:07:53.972Z,26.98
2023-03-06T03:10:36.317Z,26.58
2023-03-06T03:13:11.427Z,28.90
2023-03-06T03:15:48.318Z,32.05
2023-03-06T03:18:20.611Z,29.33
2023-03-06T03:20:50.849Z,29.30
2023-03-06T03:23:18.569Z,29.30
2023-03-06T03:25:45.356Z,28.85
2023-03-06T03:28:22.734Z,48.53
2023-03-06T03:30:52.531Z,31.33
2023-03-06T03:33:19.757Z,29.90
2023-03-06T03:35:56.389Z,29.50
2023-03-06T03:38:26.433Z,29.58
2023-03-06T03:41:03.286Z,29.00
2023-03-06T03:43:42.377Z,30.20
2023-03-06T03:46:11.752Z,27.92
2023-03-06T03:48:45.738Z,28.75
2023-03-06T03:51:16.763Z,29.00
2023-03-06T03:53:49.378Z,27.70
2023-03-06T03:56:20.333Z,29.13
2023-03-06T04:01:56.134Z,25.20
2023-03-06T04:04:33.024Z,26.45
2023-03-06T04:07:03.422Z,28.35
2023-03-06T04:09:30.432Z,28.98
2023-03-06T04:11:57.353Z,29.02
2023-03-06T04:14:30.648Z,30.60
2023-03-06T04:17:00.453Z,28.90
2023-03-06T04:19:38.603Z,28.00
2023-03-06T04:22:11.276Z,28.67
2023-03-06T04:24:45.431Z,27.33
2023-03-06T04:27:15.262Z,26.75
2023-03-06T04:29:48.638Z,27.88
2023-03-06T04:32:27.084Z,27.70
2023-03-06T04:34:53.947Z,27.55
2023-03-06T04:37:25.166Z,28.33
2023-03-06T04:39:56.758Z,26.70
2023-03-06T04:42:26.801Z,27.08
2023-03-06T04:44:56.440Z,27.25
2023-03-06T04:47:23.235Z,28.15
2023-03-06T04:49:57.369Z,32.30
2023-03-06T04:52:26.847Z,33.30
2023-03-06T04:55:08.547Z,31.98
2023-03-06T04:57:39.661Z,34.60
2023-03-06T05:00:17.089Z,30.17
2023-03-06T05:03:06.081Z,30.63
2023-03-06T05:05:38.630Z,28.05
2023-03-06T05:08:13.874Z,27.10
2023-03-06T05:10:43.445Z,26.77
2023-03-06T05:13:14.550Z,26.83
2023-03-06T05:15:44.795Z,26.20
2023-03-06T05:18:14.781Z,25.95
2023-03-06T05:20:50.065Z,26.13
2023-03-06T05:23:19.649Z,24.13
2023-03-06T05:25:46.906Z,25.08
2023-03-06T05:28:18.910Z,24.40
2023-03-06T05:30:48.727Z,24.55
2023-03-06T05:33:18.163Z,26.55
2023-03-06T05:35:53.012Z,25.63
2023-03-06T05:38:26.195Z,27.00
2023-03-06T05:40:56.314Z,24.63
2023-03-06T05:43:31.601Z,25.50
2023-03-06T05:46:07.580Z,25.20
2023-03-06T05:48:46.763Z,23.92
2023-03-06T05:51:23.282Z,25.48
2023-03-06T05:53:54.171Z,23.08
2023-03-06T05:56:26.976Z,24.17
2023-03-06T05:58:54.102Z,23.92
2023-03-06T06:01:24.634Z,23.52
2023-03-06T06:03:51.779Z,23.02
2023-03-06T06:06:21.701Z,24.60
2023-03-06T06:08:51.466Z,23.65
2023-03-06T06:11:21.253Z,24.58
2023-03-06T06:13:51.177Z,24.63
2023-03-06T06:16:26.773Z,23.67
2023-03-06T06:18:55.559Z,23.45
2023-03-06T06:21:27.919Z,27.70
2023-03-06T06:23:57.113Z,24.70
2023-03-06T06:26:23.928Z,25.05
2023-03-06T06:28:53.635Z,25.05
2023-03-06T06:31:23.187Z,26.45
2023-03-06T06:33:52.622Z,25.17
2023-03-06T06:36:26.878Z,23.45
2023-03-06T06:39:02.132Z,24.40
2023-03-06T06:44:27.613Z,23.70
2023-03-06T06:50:00.711Z,25.85
2023-03-06T06:52:34.358Z,24.52
2023-03-06T06:55:06.848Z,25.77
2023-03-06T07:00:12.337Z,23.50
2023-03-06T07:02:45.048Z,24.20
2023-03-06T07:05:16.966Z,24.75
2023-03-06T07:07:45.061Z,24.45
2023-03-06T07:10:13.744Z,27.13
2023-03-06T07:12:52.236Z,27.27
2023-03-06T07:15:19.703Z,27.17
2023-03-06T07:17:52.458Z,26.50
2023-03-06T07:20:24.910Z,26.48
2023-03-06T07:22:57.598Z,27.42
2023-03-06T07:25:27.536Z,27.33
2023-03-06T07:27:55.061Z,27.40
2023-03-06T07:30:29.379Z,27.38
2023-03-06T07:33:00.264Z,27.48
2023-03-06T07:35:33.129Z,27.88
2023-03-06T07:38:08.135Z,29.02
2023-03-06T07:40:56.525Z,28.13
2023-03-06T07:43:34.947Z,27.77
2023-03-06T07:46:06.334Z,27.92
2023-03-06T07:48:34.321Z,31.60
2023-03-06T07:51:04.531Z,28.48
2023-03-06T07:57:27.191Z,27.42
2023-03-06T08:18:46.366Z,23.48
2023-03-06T08:47:32.951Z,23.23
2023-03-06T08:50:04.762Z,22.02
2023-03-06T08:59:21.450Z,22.30
2023-03-06T09:02:44.371Z,22.05
2023-03-06T09:05:19.946Z,22.02
2023-03-06T09:08:03.181Z,21.85
2023-03-06T09:11:03.192Z,21.95
2023-03-06T09:16:31.761Z,24.95
2023-03-06T09:19:09.847Z,19.75
2023-03-06T09:22:06.757Z,23.25
2023-03-06T09:24:42.874Z,24.55
2023-03-06T09:27:35.476Z,25.92
2023-03-06T09:30:24.873Z,25.42
2023-03-06T09:33:03.770Z,24.70
2023-03-06T11:09:52.834Z,19.60
2023-03-06T11:18:07.893Z,20.65
2023-03-06T11:35:42.290Z,21.42
2023-03-06T11:38:45.334Z,20.92
2023-03-06T12:20:03.804Z,22.40
2023-03-06T12:22:57.543Z,22.73
2023-03-06T12:26:10.373Z,21.52
2023-03-06T12:31:13.666Z,21.10
2023-03-06T12:33:48.358Z,23.00
2023-03-06T12:36:57.085Z,21.90
2023-03-06T12:39:52.977Z,22.40
2023-03-06T12:43:01.889Z,23.05
2023-03-06T12:45:42.225Z,20.48
2023-03-06T12:48:17.242Z,21.70
2023-03-06T12:51:08.362Z,21.08
2023-03-06T12:53:41.068Z,21.45
2023-03-06T12:56:34.221Z,22.42
2023-03-06T12:59:09.858Z,23.33
2023-03-06T13:02:00.956Z,23.65
2023-03-06T13:04:38.720Z,23.85
2023-03-06T13:07:30.814Z,24.40
2023-03-06T13:10:36.306Z,23.77
2023-03-06T13:13:34.621Z,24.98
2023-03-06T13:16:24.771Z,24.38
2023-03-06T13:19:01.147Z,25.10
2023-03-06T13:21:49.198Z,24.08
2023-03-06T13:24:29.923Z,22.92
2023-03-06T13:27:01.794Z,25.05
2023-03-06T13:29:50.601Z,23.95
2023-03-06T13:32:45.932Z,23.15
2023-03-06T13:35:42.277Z,25.13
2023-03-06T13:38:31.932Z,23.80
2023-03-06T13:41:23.189Z,24.77
2023-03-06T13:44:03.049Z,24.75
2023-03-06T13:46:41.348Z,23.23
2023-03-06T13:49:10.558Z,23.90
2023-03-06T13:52:11.963Z,23.45
2023-03-06T13:54:45.731Z,22.85
2023-03-06T13:57:16.256Z,23.90
2023-03-06T14:00:19.438Z,20.08
2023-03-06T14:03:08.619Z,20.40
2023-03-06T14:05:46.917Z,21.48
2023-03-06T14:08:24.134Z,22.02
2023-03-06T14:11:13.695Z,21.58
2023-03-06T14:13:47.850Z,21.80
2023-03-06T14:16:25.100Z,22.58
2023-03-06T14:19:15.950Z,21.50
2023-03-06T14:22:13.969Z,22.58
2023-03-06T14:24:45.161Z,22.55
2023-03-06T14:27:19.000Z,20.48
2023-03-06T14:32:49.681Z,20.05
2023-03-06T14:35:31.429Z,20.10
2023-03-06T14:38:02.851Z,19.83
2023-03-06T14:41:00.865Z,19.75
2023-03-06T14:43:32.450Z,19.35
2023-03-06T14:46:07.524Z,19.77
2023-03-06T14:48:59.617Z,23.73
2023-03-06T14:51:36.021Z,19.63
2023-03-06T14:54:16.658Z,19.60
2023-03-06T14:56:59.898Z,20.45
2023-03-06T15:03:25.231Z,19.73
2023-03-06T15:15:55.355Z,19.80
2023-03-06T15:18:39.387Z,21.92
2023-03-06T15:21:14.904Z,22.63
2023-03-06T15:23:59.761Z,21.67
2023-03-06T15:26:54.481Z,20.17
2023-03-06T15:29:42.830Z,19.67
2023-03-06T15:32:44.273Z,20.88
2023-03-06T15:35:42.034Z,21.58
2023-03-06T15:41:50.569Z,23.77
2023-03-06T15:44:55.645Z,23.42
2023-03-06T15:54:09.927Z,22.92
2023-03-06T16:14:00.656Z,24.15
2023-03-06T16:22:42.488Z,24.48
2023-03-06T16:25:46.370Z,23.83
2023-03-06T16:39:22.983Z,23.35
2023-03-06T16:49:08.886Z,24.30
2023-03-06T16:51:50.395Z,24.88
2023-03-06T16:57:44.362Z,24.65
2023-03-06T17:00:31.377Z,36.95
2023-03-06T17:03:50.250Z,22.40
2023-03-06T17:06:32.706Z,26.37
2023-03-06T17:16:23.689Z,27.90
2023-03-06T17:22:32.266Z,28.17
2023-03-06T17:34:28.553Z,27.92
2023-03-06T17:37:18.893Z,27.88
2023-03-06T17:40:16.025Z,26.08
2023-03-06T17:42:51.654Z,28.25
2023-03-06T17:45:35.721Z,27.98
2023-03-06T17:48:15.613Z,28.50
2023-03-06T17:50:57.128Z,29.92
2023-03-06T17:53:24.757Z,28.58
2023-03-06T17:59:16.069Z,30.05
2023-03-06T18:04:51.744Z,28.77
2023-03-06T18:07:24.213Z,29.52
2023-03-06T18:09:54.787Z,30.08
2023-03-06T18:12:25.546Z,33.10
2023-03-06T18:14:58.477Z,32.65
2023-03-06T18:17:33.147Z,34.38
2023-03-06T18:20:07.461Z,34.88
2023-03-06T18:25:24.563Z,37.03
2023-03-06T18:28:18.629Z,37.88
2023-03-06T18:30:51.231Z,53.60
2023-03-06T18:33:25.945Z,37.60
2023-03-06T18:36:03.636Z,35.90
2023-03-06T18:38:45.867Z,36.10
2023-03-06T18:41:23.271Z,37.42
2023-03-06T18:44:01.782Z,36.53
2023-03-06T18:46:37.600Z,37.13
2023-03-06T18:49:09.847Z,39.03
2023-03-06T18:52:07.326Z,41.13
2023-03-06T18:54:46.380Z,45.53
2023-03-06T18:57:22.590Z,43.33
2023-03-06T18:59:51.006Z,44.67
2023-03-06T19:02:26.476Z,41.17
2023-03-06T19:36:57.567Z,39.75
2023-03-06T19:39:32.539Z,45.78
2023-03-06T19:42:05.034Z,46.17
2023-03-06T19:44:41.183Z,44.40
2023-03-06T19:47:12.774Z,41.08
2023-03-06T19:52:46.735Z,39.15
2023-03-06T19:55:37.391Z,40.00
2023-03-06T19:58:11.419Z,41.55
2023-03-06T20:00:38.661Z,44.10
2023-03-06T20:03:11.675Z,42.92
2023-03-06T20:05:47.948Z,44.55
2023-03-06T20:08:19.778Z,45.28
2023-03-06T20:10:51.321Z,43.80
2023-03-06T20:13:25.530Z,43.00
2023-03-06T20:16:03.169Z,45.75
2023-03-06T20:18:42.996Z,49.72
2023-03-06T20:21:12.202Z,57.15
2023-03-06T20:23:48.854Z,58.58
2023-03-06T20:26:24.342Z,57.77
2023-03-06T20:28:57.578Z,51.72
2023-03-06T20:31:31.187Z,52.97
2023-03-06T20:33:59.205Z,51.67
2023-03-06T20:36:38.447Z,52.65
2023-03-06T20:39:13.263Z,29.80
2023-03-06T20:41:48.662Z,49.42
2023-03-06T20:44:26.759Z,50.70
2023-03-06T20:46:58.737Z,45.63
2023-03-06T20:49:30.689Z,45.20
2023-03-06T20:52:06.590Z,45.03
2023-03-06T20:54:33.579Z,44.42
2023-03-06T20:57:03.439Z,43.90
2023-03-06T20:59:50.643Z,43.90
2023-03-06T21:02:18.840Z,44.65
2023-03-06T21:04:51.215Z,44.78
2023-03-06T21:07:25.781Z,44.20
2023-03-06T21:10:00.732Z,45.83
2023-03-06T21:12:33.689Z,43.75
2023-03-06T21:15:07.255Z,49.13
2023-03-06T21:17:43.188Z,47.63
2023-03-06T21:20:17.644Z,45.47
2023-03-06T21:22:51.479Z,41.40
2023-03-06T21:27:55.699Z,41.88
2023-03-06T21:30:36.003Z,44.95
2023-03-06T21:33:09.325Z,43.50
2023-03-06T21:35:48.554Z,42.90
2023-03-06T21:38:23.454Z,46.38
2023-03-06T21:40:58.746Z,46.88
2023-03-06T21:43:30.964Z,46.22
2023-03-06T21:45:59.315Z,47.60
2023-03-06T21:48:30.285Z,46.30
2023-03-06T21:51:27.538Z,46.13
2023-03-06T21:54:00.948Z,47.40
2023-03-06T21:56:34.168Z,44.58
2023-03-06T21:59:03.698Z,46.42
2023-03-06T22:01:33.481Z,45.03
2023-03-06T22:04:01.159Z,48.58
2023-03-06T22:06:36.240Z,46.53
2023-03-06T22:09:04.417Z,48.53
2023-03-06T22:11:41.917Z,45.63
2023-03-06T22:14:11.712Z,50.92
2023-03-06T22:16:44.731Z,44.85
2023-03-06T22:19:12.286Z,48.85
2023-03-06T22:21:46.412Z,48.28
2023-03-06T22:24:21.433Z,45.00
2023-03-06T22:26:49.100Z,45.60
2023-03-06T22:29:21.739Z,45.83
2023-03-06T22:31:57.182Z,47.33
2023-03-06T22:34:34.032Z,45.33
2023-03-06T22:37:01.771Z,44.83
2023-03-06T22:39:28.985Z,24.77
2023-03-06T22:41:58.323Z,42.83
2023-03-06T22:44:33.989Z,43.95
2023-03-06T22:47:03.971Z,46.55
2023-03-06T22:49:33.235Z,25.33
2023-03-06T22:52:10.403Z,27.67
2023-03-06T22:54:40.047Z,30.38
2023-03-06T22:57:15.212Z,29.58
2023-03-06T22:59:48.734Z,30.65
2023-03-06T23:05:09.326Z,49.15
2023-03-06T23:07:42.298Z,50.35
2023-03-06T23:10:11.580Z,47.83
2023-03-06T23:13:00.349Z,30.38
2023-03-06T23:15:51.110Z,26.38
2023-03-06T23:18:42.730Z,28.02
2023-03-06T23:21:36.576Z,28.33
2023-03-06T23:24:25.292Z,29.80
2023-03-06T23:26:52.078Z,29.50
2023-03-06T23:29:27.601Z,52.42
2023-03-06T23:31:59.857Z,30.13
2023-03-06T23:34:28.104Z,27.73
2023-03-06T23:37:02.171Z,29.50
2023-03-06T23:39:29.830Z,29.63
2023-03-06T23:42:01.373Z,32.70
2023-03-06T23:44:32.729Z,32.78
2023-03-06T23:47:02.180Z,30.38
2023-03-06T23:49:32.258Z,52.88
2023-03-06T23:52:04.681Z,50.92
2023-03-06T23:54:36.795Z,29.10
2023-03-06T23:57:06.697Z,31.08
2023-03-06T23:59:36.280Z,51.33
